Time;durP1;ratioP1;P1;durP2;ratioP2;P2;SDS_P1;SDS_P2;PMS_P1;PMS_P2;Temp;Humidity;BMP_temperature;BMP_pressure;BME280_temperature;BME280_humidity;BME280_pressure;Samples;Min_cycle;Max_cycle;Signal;HPM_P1;HPM_P2
2021/07/04 00:00:25;;;;;;;3.70;3.30;;;;;;;20.34;64.46;100969.44;5090943;28;20205;-64
2021/07/04 00:02:54;;;;;;;7.17;3.80;;;;;;;20.26;64.61;100959.88;5090752;28;20185;-64
2021/07/04 00:05:23;;;;;;;3.67;3.30;;;;;;;19.60;64.63;100883.69;5090938;28;20170;-64
2021/07/04 00:10:35;;;;;;;4.93;3.53;;;;;;;20.25;63.95;100967.53;5070838;28;20667;-64
2021/07/04 00:13:01;;;;;;;4.00;3.43;;;;;;;19.84;64.13;100897.59;5077924;28;20183;-64
2021/07/04 00:15:29;;;;;;;4.43;3.10;;;;;;;20.21;64.33;100958.50;5090857;28;20208;-64
2021/07/04 00:17:55;;;;;;;4.43;3.37;;;;;;;20.16;63.97;100942.31;5088698;28;20234;-64
2021/07/04 00:20:22;;;;;;;3.63;3.30;;;;;;;20.22;63.93;100956.50;5090425;28;20232;-64
2021/07/04 00:22:54;;;;;;;3.40;3.10;;;;;;;20.23;63.91;100949.59;5090799;28;20167;-64
2021/07/04 00:25:21;;;;;;;3.53;3.00;;;;;;;20.23;63.92;100944.75;5090692;28;20171;-64
2021/07/04 00:27:46;;;;;;;4.87;3.13;;;;;;;19.59;63.82;100844.84;5090087;28;20175;-63
2021/07/04 00:30:14;;;;;;;4.17;3.03;;;;;;;20.16;64.09;100944.38;5090394;28;20231;-64
2021/07/04 00:32:39;;;;;;;4.70;3.07;;;;;;;19.72;64.01;100879.78;5090590;28;20733;-64
2021/07/04 00:35:07;;;;;;;3.70;3.27;;;;;;;20.18;64.03;100948.25;5090364;28;20207;-64
2021/07/04 00:37:33;;;;;;;3.10;2.80;;;;;;;20.17;63.72;100945.94;5089694;28;20175;-63
2021/07/04 00:39:58;;;;;;;3.27;2.97;;;;;;;19.99;63.82;100927.22;5090425;28;20186;-64
2021/07/04 00:42:24;;;;;;;4.20;3.30;;;;;;;19.77;63.66;100879.09;5090653;28;20179;-64
2021/07/04 00:44:51;;;;;;;8.70;3.80;;;;;;;20.20;63.45;100945.72;5090778;28;20183;-64
2021/07/04 00:47:17;;;;;;;4.07;3.37;;;;;;;19.35;63.53;100802.03;5089886;28;20202;-64
2021/07/04 00:49:42;;;;;;;4.60;3.10;;;;;;;20.23;63.31;100941.16;5077202;28;20198;-64
2021/07/04 00:52:08;;;;;;;3.67;3.10;;;;;;;20.26;63.14;100937.38;5070097;28;20171;-63
2021/07/04 00:54:35;;;;;;;3.30;3.00;;;;;;;20.25;63.40;100928.13;5070370;28;20206;-64
2021/07/04 00:57:00;;;;;;;3.93;3.23;;;;;;;20.21;63.20;100930.38;5069427;28;20192;-64
2021/07/04 00:59:26;;;;;;;3.53;3.07;;;;;;;20.28;63.23;100934.81;5074231;28;20249;-64
2021/07/04 01:01:57;;;;;;;3.53;2.97;;;;;;;19.90;62.95;100879.53;5088577;28;20179;-64
2021/07/04 01:04:22;;;;;;;4.97;3.10;;;;;;;20.25;63.04;100936.56;5094085;28;20174;-63
2021/07/04 01:06:48;;;;;;;4.70;3.10;;;;;;;20.24;63.06;100943.47;5093364;28;20175;-63
2021/07/04 01:09:13;;;;;;;4.07;3.20;;;;;;;20.37;62.95;100940.31;5092479;28;20580;-63
2021/07/04 01:11:39;;;;;;;4.17;3.10;;;;;;;20.39;62.57;100944.19;5094152;28;20208;-64
2021/07/04 01:14:04;;;;;;;3.30;3.00;;;;;;;20.46;62.86;100935.31;5093801;28;20269;-64
2021/07/04 01:16:31;;;;;;;3.43;3.07;;;;;;;20.48;62.89;100929.97;5094079;28;20575;-64
2021/07/04 01:18:57;;;;;;;4.17;3.40;;;;;;;20.39;63.19;100932.16;5093132;28;20644;-64
2021/07/04 01:21:24;;;;;;;5.00;3.30;;;;;;;20.32;63.11;100935.38;5093812;28;20227;-64
2021/07/04 01:23:49;;;;;;;4.10;3.70;;;;;;;20.13;63.86;100946.13;5093925;28;20202;-63
2021/07/04 01:26:15;;;;;;;4.27;3.60;;;;;;;18.88;64.57;100774.19;5093554;28;20214;-64
2021/07/04 01:28:40;;;;;;;4.07;3.33;;;;;;;19.97;64.94;100935.38;5093141;28;20175;-64
2021/07/04 01:31:06;;;;;;;4.23;3.60;;;;;;;19.34;64.58;100834.97;5089036;28;20183;-64
2021/07/04 01:33:32;;;;;;;3.90;3.50;;;;;;;19.78;64.43;100893.91;5073583;28;20205;-64
2021/07/04 01:35:58;;;;;;;5.53;3.63;;;;;;;20.09;64.37;100925.09;5073121;28;20276;-64
2021/07/04 01:38:23;;;;;;;5.27;3.57;;;;;;;19.36;64.17;100801.56;5091365;28;20182;-64
2021/07/04 01:40:49;;;;;;;5.57;3.70;;;;;;;20.20;64.56;100919.59;5093693;28;20175;-64
2021/07/04 01:43:14;;;;;;;4.97;3.60;;;;;;;20.08;63.90;100904.63;5093278;28;20668;-64
2021/07/04 01:45:40;;;;;;;3.57;3.27;;;;;;;20.22;64.46;100923.47;5093557;28;20171;-64
2021/07/04 01:48:07;;;;;;;4.40;3.33;;;;;;;20.20;64.41;100911.16;5092721;28;20644;-64
2021/07/04 01:50:36;;;;;;;4.60;3.30;;;;;;;20.22;64.53;100926.28;5093378;28;20178;-64
2021/07/04 01:53:02;;;;;;;3.63;3.30;;;;;;;19.56;64.19;100826.13;5093126;28;20178;-64
2021/07/04 01:55:28;;;;;;;4.50;3.40;;;;;;;20.29;63.92;100914.63;5091812;28;20263;-64
2021/07/04 01:57:54;;;;;;;4.07;3.60;;;;;;;20.18;63.97;100927.78;5071065;28;20279;-63
2021/07/04 02:00:26;;;;;;;3.40;3.10;;;;;;;20.04;64.47;100923.72;5074528;28;20176;-64
2021/07/04 02:02:54;;;;;;;4.70;3.90;;;;;;;19.35;64.16;100814.03;5093080;28;20174;-64
2021/07/04 02:05:20;;;;;;;5.80;3.73;;;;;;;19.14;64.02;100787.13;5093039;28;20164;-63
2021/07/04 02:07:46;;;;;;;5.57;3.70;;;;;;;19.49;63.94;100832.16;5082934;28;20183;-64
2021/07/04 02:10:17;;;;;;;5.23;3.53;;;;;;;19.12;65.20;100817.75;5092747;28;20171;-64
2021/07/04 02:12:43;;;;;;;5.97;3.87;;;;;;;19.30;65.24;100850.50;5092842;28;20266;-64
2021/07/04 02:15:15;;;;;;;4.47;3.73;;;;;;;19.71;65.17;100914.78;5092724;28;20286;-64
2021/07/04 02:17:41;;;;;;;5.80;3.90;;;;;;;19.60;65.28;100905.41;5090941;28;20609;-63
2021/07/04 02:20:39;;;;;;;5.53;3.87;;;;;;;19.62;64.89;100919.75;5079485;28;20227;-63
2021/07/04 02:23:15;;;;;;;5.10;3.83;;;;;;;19.61;65.03;100907.75;5070901;28;20183;-64
2021/07/04 02:25:43;;;;;;;3.70;3.40;;;;;;;19.68;64.88;100914.97;5072469;28;20209;-64
2021/07/04 02:28:10;;;;;;;4.83;3.70;;;;;;;19.69;64.77;100906.06;5071575;28;20582;-63
2021/07/04 02:30:37;;;;;;;4.10;3.70;;;;;;;19.15;64.36;100818.81;5072525;28;20172;-63
2021/07/04 02:33:06;;;;;;;5.93;3.97;;;;;;;19.71;64.13;100922.44;5092348;28;20178;-64
2021/07/04 02:35:34;;;;;;;6.23;3.67;;;;;;;19.78;64.07;100907.97;5092541;28;20191;-63
2021/07/04 02:38:00;;;;;;;5.60;3.87;;;;;;;19.87;63.78;100907.88;5091397;28;20236;-63
2021/07/04 02:40:27;;;;;;;5.00;3.63;;;;;;;19.90;63.70;100910.47;5092534;28;20179;-63
2021/07/04 02:42:52;;;;;;;4.17;3.73;;;;;;;19.58;63.65;100857.31;5092177;28;20179;-64
2021/07/04 02:45:18;;;;;;;4.37;3.70;;;;;;;19.88;63.62;100909.41;5092072;28;20185;-63
2021/07/04 02:47:44;;;;;;;5.67;3.70;;;;;;;19.89;63.60;100922.19;5091698;28;20177;-64
2021/07/04 02:50:11;;;;;;;5.27;3.90;;;;;;;19.85;63.52;100910.41;5091943;28;20182;-63
2021/07/04 02:52:37;;;;;;;5.50;4.13;;;;;;;19.88;63.78;100921.44;5092194;28;20232;-64
2021/07/04 02:55:05;;;;;;;5.80;3.80;;;;;;;19.16;63.47;100803.50;5091934;28;20259;-63
2021/07/04 02:57:31;;;;;;;4.10;3.60;;;;;;;20.01;63.50;100935.94;5072923;28;20180;-64
2021/07/04 02:59:57;;;;;;;6.53;3.80;;;;;;;19.77;63.04;100867.06;5071702;28;20261;-63
2021/07/04 03:02:23;;;;;;;5.13;3.80;;;;;;;20.10;63.11;100918.97;5071690;28;20233;-63
2021/07/04 03:04:49;;;;;;;3.83;3.43;;;;;;;19.72;63.06;100856.50;5071733;28;20254;-64
2021/07/04 03:07:15;;;;;;;4.83;3.77;;;;;;;19.20;62.87;100776.78;5076366;28;20298;-63
2021/07/04 03:09:42;;;;;;;9.27;4.20;;;;;;;19.44;63.81;100818.78;5074902;28;20237;-63
2021/07/04 03:12:08;;;;;;;6.50;3.93;;;;;;;20.04;64.04;100917.31;5071552;28;20180;-63
2021/07/04 03:14:34;;;;;;;6.37;4.17;;;;;;;20.11;63.61;100922.56;5071587;28;20628;-64
2021/07/04 03:16:59;;;;;;;6.43;4.07;;;;;;;20.07;64.08;100919.94;5070615;28;20590;-63
2021/07/04 03:19:25;;;;;;;7.83;3.93;;;;;;;20.06;64.45;100928.88;5078144;28;20175;-64
2021/07/04 03:21:50;;;;;;;7.80;4.13;;;;;;;19.93;64.63;100928.41;5091098;28;20182;-63
2021/07/04 03:24:16;;;;;;;7.30;4.13;;;;;;;20.00;64.10;100925.19;5091279;28;20183;-64
2021/07/04 03:26:41;;;;;;;16.97;4.70;;;;;;;19.77;64.42;100892.38;5091220;28;20171;-64
2021/07/04 03:29:07;;;;;;;4.77;3.50;;;;;;;19.87;63.24;100919.91;5090954;28;20179;-63
2021/07/04 03:31:33;;;;;;;7.80;4.50;;;;;;;19.87;63.99;100916.31;5091163;28;20260;-63
2021/07/04 03:33:58;;;;;;;6.43;4.00;;;;;;;19.92;64.02;100924.84;5091301;28;20174;-64
2021/07/04 03:36:24;;;;;;;5.30;3.80;;;;;;;19.88;64.01;100927.06;5091131;28;20590;-64
2021/07/04 03:38:49;;;;;;;5.60;4.03;;;;;;;19.86;63.51;100929.56;5090507;28;20516;-64
2021/07/04 03:41:15;;;;;;;6.50;4.00;;;;;;;19.78;63.59;100927.66;5091118;28;20328;-64
2021/07/04 03:43:40;;;;;;;5.70;3.80;;;;;;;19.84;63.11;100934.13;5091210;28;20186;-64
2021/07/04 03:46:06;;;;;;;4.33;3.93;;;;;;;19.87;63.17;100933.19;5091090;28;20192;-64
2021/07/04 03:48:31;;;;;;;6.87;3.83;;;;;;;19.92;63.32;100930.47;5090438;28;20186;-63
2021/07/04 03:50:57;;;;;;;7.30;3.90;;;;;;;19.96;63.24;100928.19;5091141;28;20226;-64
2021/07/04 03:53:22;;;;;;;4.43;3.70;;;;;;;20.09;62.77;100944.78;5090983;28;20186;-63
2021/07/04 03:55:48;;;;;;;4.87;3.50;;;;;;;20.13;62.55;100932.06;5090879;28;20205;-64
2021/07/04 03:58:13;;;;;;;7.53;3.83;;;;;;;20.18;62.62;100948.25;5090183;28;20177;-64
2021/07/04 04:00:39;;;;;;;5.23;3.77;;;;;;;19.94;62.57;100908.22;5090977;28;20607;-64
2021/07/04 04:03:04;;;;;;;3.87;3.47;;;;;;;20.37;62.05;100943.88;5090807;28;20181;-63
2021/07/04 04:05:30;;;;;;;6.70;3.47;;;;;;;20.46;61.88;100949.38;5090999;28;20674;-64
2021/07/04 04:07:55;;;;;;;4.50;3.67;;;;;;;20.09;61.93;100882.88;5080569;28;20730;-63
2021/07/04 04:10:21;;;;;;;5.73;3.57;;;;;;;20.46;62.22;100940.94;5091261;28;20186;-64
2021/07/04 04:12:46;;;;;;;6.83;4.27;;;;;;;20.51;61.56;100945.09;5090694;28;20196;-64
2021/07/04 04:15:12;;;;;;;4.83;3.97;;;;;;;20.58;61.95;100944.69;5090623;28;20197;-64
2021/07/04 04:17:38;;;;;;;5.43;4.37;;;;;;;20.59;61.95;100941.38;5090185;28;20180;-63
2021/07/04 04:20:06;;;;;;;5.03;3.87;;;;;;;20.39;61.73;100898.38;5090294;28;20606;-64
2021/07/04 04:22:31;;;;;;;5.10;3.80;;;;;;;20.75;61.51;100956.91;5089424;28;20165;-64
2021/07/04 04:24:57;;;;;;;6.03;4.23;;;;;;;20.85;61.83;100953.47;5090360;28;20198;-64
2021/07/04 04:27:22;;;;;;;5.43;4.23;;;;;;;19.85;62.13;100795.84;5089890;28;20179;-64
2021/07/04 04:29:48;;;;;;;5.37;4.00;;;;;;;20.01;62.41;100811.41;5090825;28;20177;-64
2021/07/04 04:32:14;;;;;;;5.90;4.07;;;;;;;21.00;62.24;100962.63;5090700;28;20185;-64
2021/07/04 04:34:39;;;;;;;5.30;4.10;;;;;;;21.13;62.13;100965.06;5094921;28;20227;-64
2021/07/04 04:37:05;;;;;;;4.10;3.70;;;;;;;21.18;62.12;100965.09;5093791;28;20627;-63
2021/07/04 04:39:31;;;;;;;4.40;4.00;;;;;;;21.25;61.59;100961.88;5094739;28;20211;-64
2021/07/04 04:41:57;;;;;;;5.30;3.70;;;;;;;21.35;60.71;100954.00;5094464;28;20686;-64
2021/07/04 04:44:23;;;;;;;4.00;3.43;;;;;;;21.43;59.36;100964.34;5094468;28;20192;-64
2021/07/04 04:46:48;;;;;;;4.87;3.47;;;;;;;21.54;59.12;100964.44;5094143;28;20171;-64
2021/07/04 04:49:14;;;;;;;4.73;3.40;;;;;;;21.27;58.71;100896.53;5094283;28;20239;-64
2021/07/04 04:51:40;;;;;;;5.60;3.70;;;;;;;21.72;59.03;100972.56;5094388;28;20556;-64
2021/07/04 04:54:06;;;;;;;4.60;3.60;;;;;;;21.80;58.30;100968.00;5094201;28;20171;-64
2021/07/04 04:56:32;;;;;;;5.67;3.53;;;;;;;21.97;59.30;100971.75;5094274;28;20391;-64
2021/07/04 04:58:58;;;;;;;5.97;3.97;;;;;;;21.80;59.43;100936.22;5093555;28;20183;-64
2021/07/04 05:01:26;;;;;;;5.50;4.00;;;;;;;22.28;59.09;100970.91;5094229;28;20167;-64
2021/07/04 05:03:52;;;;;;;4.57;4.10;;;;;;;22.39;59.42;100980.22;5094213;28;20257;-64
2021/07/04 05:06:18;;;;;;;5.63;4.00;;;;;;;22.56;59.14;100986.00;5093693;28;20320;-65
2021/07/04 05:08:43;;;;;;;6.13;3.70;;;;;;;22.62;59.55;100973.41;5093176;28;20183;-64
2021/07/04 05:11:09;;;;;;;9.03;4.47;;;;;;;22.72;59.42;100977.56;5093972;28;20177;-64
2021/07/04 05:13:35;;;;;;;5.53;3.80;;;;;;;22.83;57.64;100971.19;5080503;28;20182;-64
2021/07/04 05:16:01;;;;;;;4.13;3.73;;;;;;;22.16;56.28;100859.97;5073614;28;20217;-64
2021/07/04 05:18:26;;;;;;;4.97;3.70;;;;;;;23.08;56.62;100981.56;5073057;28;20370;-64
2021/07/04 05:20:52;;;;;;;4.80;3.73;;;;;;;22.48;56.06;100871.94;5073535;28;20223;-64
2021/07/04 05:23:17;;;;;;;4.00;3.60;;;;;;;23.31;56.88;100977.50;5073539;28;20179;-64
2021/07/04 05:25:43;;;;;;;4.60;3.40;;;;;;;23.43;55.12;100984.75;5086841;28;20175;-65
2021/07/04 05:28:08;;;;;;;4.20;3.53;;;;;;;23.30;55.04;100959.00;5093056;28;20175;-64
2021/07/04 05:30:34;;;;;;;5.63;3.33;;;;;;;23.50;53.60;100979.34;5093948;28;20606;-64
2021/07/04 05:33:00;;;;;;;6.00;3.57;;;;;;;23.37;53.27;100962.09;5073094;28;20183;-64
2021/07/04 05:35:27;;;;;;;4.13;3.33;;;;;;;23.54;52.55;100979.09;5073716;28;20199;-64
2021/07/04 05:37:53;;;;;;;4.77;3.60;;;;;;;23.46;53.76;100978.84;5087055;28;20194;-64
2021/07/04 05:40:18;;;;;;;5.73;3.23;;;;;;;23.44;53.64;100975.72;5093329;28;20663;-64
2021/07/04 05:42:45;;;;;;;3.90;3.17;;;;;;;23.62;53.76;100986.56;5092968;28;20201;-64
2021/07/04 05:45:17;;;;;;;4.20;3.13;;;;;;;23.51;53.51;100975.25;5093239;28;20175;-63
2021/07/04 05:47:43;;;;;;;4.70;3.20;;;;;;;23.28;53.25;100925.59;5092754;28;20250;-63
2021/07/04 05:50:09;;;;;;;5.57;3.50;;;;;;;23.64;53.36;100986.81;5092930;28;20834;-64
2021/07/04 05:52:34;;;;;;;4.27;3.43;;;;;;;23.73;53.83;100974.47;5093233;28;20205;-64
2021/07/04 05:54:59;;;;;;;3.67;3.33;;;;;;;23.79;52.77;100981.66;5091850;28;20186;-65
2021/07/04 05:57:25;;;;;;;4.40;3.30;;;;;;;23.76;52.34;100984.75;5092351;28;20178;-64
2021/07/04 05:59:50;;;;;;;3.87;3.20;;;;;;;23.64;52.07;100952.09;5093315;28;20262;-64
2021/07/04 06:02:16;;;;;;;4.60;3.50;;;;;;;23.80;51.86;100986.03;5092783;28;20187;-64
2021/07/04 06:04:41;;;;;;;4.50;3.23;;;;;;;23.89;52.84;100991.47;5093165;28;20166;-64
2021/07/04 06:07:07;;;;;;;5.10;3.57;;;;;;;23.93;52.62;100983.50;5087638;28;20180;-64
2021/07/04 06:09:32;;;;;;;5.87;3.20;;;;;;;24.01;52.51;100983.75;5088205;28;20191;-64
2021/07/04 06:11:58;;;;;;;4.43;3.20;;;;;;;24.15;52.42;100983.47;5092903;28;20186;-64
2021/07/04 06:14:23;;;;;;;4.23;3.30;;;;;;;24.19;52.16;100983.19;5092498;28;20268;-64
2021/07/04 06:16:49;;;;;;;3.77;3.40;;;;;;;24.27;51.54;100984.22;5078166;28;20688;-64
2021/07/04 06:19:14;;;;;;;3.77;3.37;;;;;;;24.30;50.90;100983.19;5071694;28;20564;-63
2021/07/04 06:21:40;;;;;;;4.70;3.30;;;;;;;24.11;50.59;100956.72;5069579;28;20306;-63
2021/07/04 06:24:06;;;;;;;4.47;3.30;;;;;;;24.51;51.17;100988.00;5080608;28;20241;-63
2021/07/04 06:26:31;;;;;;;5.37;3.50;;;;;;;24.61;51.15;100991.38;5082012;28;20254;-63
2021/07/04 06:28:57;;;;;;;5.77;3.10;;;;;;;24.75;51.03;100987.44;5066172;28;20183;-63
2021/07/04 06:31:24;;;;;;;3.67;3.30;;;;;;;24.43;50.16;100940.91;5082842;28;20182;-62
2021/07/04 06:33:52;;;;;;;3.97;3.10;;;;;;;24.81;50.66;100997.47;5081219;28;20568;-63
2021/07/04 06:36:18;;;;;;;3.67;3.37;;;;;;;24.90;50.72;100996.38;5072618;28;20684;-63
2021/07/04 06:38:44;;;;;;;6.67;3.63;;;;;;;24.38;48.51;100902.03;5077199;28;20194;-63
2021/07/04 06:41:09;;;;;;;5.97;3.50;;;;;;;24.96;48.73;100978.06;5079853;28;20186;-64
2021/07/04 06:43:35;;;;;;;6.37;3.63;;;;;;;25.09;48.00;100992.44;5082735;28;20179;-63
2021/07/04 06:46:00;;;;;;;6.77;3.57;;;;;;;25.23;50.16;100982.81;5079372;28;20167;-63
2021/07/04 06:48:26;;;;;;;6.80;3.70;;;;;;;25.25;47.11;100990.78;5086385;28;20258;-64
2021/07/04 06:50:51;;;;;;;5.10;3.60;;;;;;;25.21;46.61;100961.94;5074759;28;20237;-63
2021/07/04 06:53:17;;;;;;;4.53;3.60;;;;;;;25.36;47.41;100963.16;5073186;28;20183;-63
2021/07/04 06:55:42;;;;;;;5.23;3.50;;;;;;;25.27;46.89;100951.34;5073941;28;20213;-63
2021/07/04 06:58:08;;;;;;;3.60;3.20;;;;;;;25.43;46.99;100961.81;5080288;28;20175;-63
2021/07/04 07:00:33;;;;;;;4.33;3.50;;;;;;;25.40;47.06;100962.88;5086049;28;20656;-64
2021/07/04 07:02:59;;;;;;;4.80;3.20;;;;;;;25.46;46.74;100960.75;5083127;28;20207;-63
2021/07/04 07:05:25;;;;;;;4.57;3.50;;;;;;;25.55;46.48;100977.47;5075768;28;20621;-63
2021/07/04 07:07:50;;;;;;;7.30;3.83;;;;;;;24.58;47.83;100811.84;5070168;28;20261;-63
2021/07/04 07:10:16;;;;;;;5.93;3.13;;;;;;;25.66;48.36;100958.28;5079202;28;20252;-63
2021/07/04 07:12:42;;;;;;;3.60;3.30;;;;;;;25.71;47.99;100956.69;5083404;28;20187;-64
2021/07/04 07:15:09;;;;;;;4.57;3.40;;;;;;;25.81;47.43;100972.88;5072848;28;20202;-63
2021/07/04 07:17:34;;;;;;;7.07;3.63;;;;;;;25.72;47.18;100973.19;5087442;28;20584;-63
2021/07/04 07:20:00;;;;;;;3.97;3.60;;;;;;;25.90;48.51;100958.31;5078614;28;20223;-63
2021/07/04 07:22:25;;;;;;;6.10;3.57;;;;;;;25.65;47.74;100908.47;5082567;28;20207;-64
2021/07/04 07:24:51;;;;;;;4.17;3.47;;;;;;;25.47;48.93;100866.59;5081624;28;20216;-63
2021/07/04 07:27:17;;;;;;;4.33;3.43;;;;;;;26.12;46.93;100960.19;5082999;28;20391;-63
2021/07/04 07:29:43;;;;;;;5.13;3.17;;;;;;;26.12;47.13;100971.56;5074652;28;20294;-63
2021/07/04 07:32:09;;;;;;;6.63;3.90;;;;;;;26.24;46.12;100961.63;5042468;28;20182;-64
2021/07/04 07:34:34;;;;;;;4.80;3.60;;;;;;;26.37;47.85;100953.22;5072740;28;20228;-63
2021/07/04 07:37:00;;;;;;;4.73;3.40;;;;;;;26.42;47.37;100943.88;5073495;28;20381;-64
2021/07/04 07:39:26;;;;;;;8.67;3.60;;;;;;;26.39;46.12;100930.72;5085554;28;20180;-64
2021/07/04 07:41:51;;;;;;;5.40;3.60;;;;;;;26.68;44.04;100952.63;5070703;28;20189;-63
2021/07/04 07:44:17;;;;;;;4.47;3.90;;;;;;;26.75;45.50;100958.47;5072131;28;20187;-63
2021/07/04 07:46:43;;;;;;;6.07;3.97;;;;;;;26.68;44.12;100953.38;5077360;28;20175;-63
2021/07/04 07:49:10;;;;;;;4.67;3.70;;;;;;;26.87;44.02;100950.56;5077671;28;20186;-62
2021/07/04 07:51:36;;;;;;;6.53;3.93;;;;;;;26.64;43.79;100915.97;5080989;28;20194;-63
2021/07/04 07:54:03;;;;;;;4.47;3.50;;;;;;;26.89;43.49;100950.78;5075599;28;20183;-62
2021/07/04 07:56:29;;;;;;;5.67;3.40;;;;;;;26.83;42.79;100942.34;5080764;28;20677;-62
2021/07/04 07:58:54;;;;;;;4.90;3.50;;;;;;;27.00;43.23;100945.72;5081566;28;20179;-62
2021/07/04 08:01:20;;;;;;;4.13;3.30;;;;;;;26.58;42.37;100861.28;5087547;28;20179;-62
2021/07/04 08:03:45;;;;;;;4.37;3.77;;;;;;;27.02;41.84;100926.03;5078885;28;20190;-62
2021/07/04 08:06:11;;;;;;;4.27;3.60;;;;;;;27.25;44.03;100947.19;5069353;28;20555;-62
2021/07/04 08:08:37;;;;;;;3.93;3.17;;;;;;;27.34;41.59;100935.38;5077541;28;20274;-62
2021/07/04 08:11:03;;;;;;;3.58;3.28;;;;;;;27.36;41.98;100912.88;5071289;28;20180;-62
2021/07/04 08:13:28;;;;;;;4.17;3.30;;;;;;;27.52;41.28;100928.91;5077312;28;20224;-62
2021/07/04 08:15:54;;;;;;;6.97;3.50;;;;;;;27.58;41.33;100932.41;5074845;28;20208;-62
2021/07/04 08:18:21;;;;;;;4.93;3.08;;;;;;;27.51;39.25;100927.38;5076191;28;20278;-62
2021/07/04 08:20:47;;;;;;;4.18;3.55;;;;;;;27.72;40.58;100921.81;5077583;28;20219;-62
2021/07/04 08:23:12;;;;;;;3.97;3.50;;;;;;;27.22;42.12;100839.38;5077573;28;20179;-62
2021/07/04 08:25:38;;;;;;;4.40;3.08;;;;;;;26.82;41.23;100797.84;5069445;28;20210;-63
2021/07/04 08:28:04;;;;;;;6.88;3.22;;;;;;;27.67;41.96;100937.69;5076759;28;20233;-62
2021/07/04 08:30:29;;;;;;;5.07;3.38;;;;;;;27.46;39.46;100910.38;5075399;28;20176;-62
2021/07/04 08:32:55;;;;;;;4.47;3.58;;;;;;;27.72;41.31;100927.53;5082513;28;20182;-62
2021/07/04 08:35:21;;;;;;;4.90;3.60;;;;;;;27.84;40.71;100923.97;5069720;28;20187;-62
2021/07/04 08:37:46;;;;;;;6.78;3.58;;;;;;;27.76;37.96;100934.44;5085755;28;20214;-62
2021/07/04 08:40:12;;;;;;;5.25;3.13;;;;;;;27.79;39.14;100916.28;5075682;28;20240;-63
2021/07/04 08:42:38;;;;;;;4.93;3.55;;;;;;;28.07;39.37;100922.25;5082410;28;20184;-62
2021/07/04 08:45:04;;;;;;;5.40;3.20;;;;;;;27.40;38.61;100836.47;5073513;28;20258;-62
2021/07/04 08:47:30;;;;;;;5.25;3.80;;;;;;;27.87;41.66;100922.09;5076800;28;20187;-63
2021/07/04 08:49:56;;;;;;;5.97;3.78;;;;;;;27.91;42.38;100916.84;5076574;28;20185;-62
2021/07/04 08:52:22;;;;;;;6.00;3.70;;;;;;;27.57;40.99;100844.69;5078853;28;20619;-62
2021/07/04 08:54:48;;;;;;;5.47;3.70;;;;;;;28.07;39.78;100916.56;5076882;28;20650;-63
2021/07/04 08:57:16;;;;;;;3.58;3.10;;;;;;;28.05;37.19;100921.25;5077037;28;20253;-62
2021/07/04 08:59:43;;;;;;;4.70;2.88;;;;;;;28.09;37.16;100913.16;5071500;28;20214;-62
2021/07/04 09:02:10;;;;;;;4.03;2.92;;;;;;;27.72;36.37;100847.78;5080333;28;20176;-62
2021/07/04 09:04:39;;;;;;;4.20;2.90;;;;;;;27.70;38.30;100839.03;5067713;28;20184;-63
2021/07/04 09:07:06;;;;;;;5.25;3.30;;;;;;;28.24;39.58;100913.34;5072316;28;20179;-63
2021/07/04 09:09:33;;;;;;;4.75;3.47;;;;;;;28.03;36.15;100913.25;5072222;28;20712;-63
2021/07/04 09:12:03;;;;;;;5.40;3.47;;;;;;;28.09;37.87;100913.91;5068256;28;20722;-63
2021/07/04 09:14:41;;;;;;;5.88;3.28;;;;;;;28.21;38.20;100894.53;5067997;28;20627;-63
2021/07/04 09:17:10;;;;;;;6.07;3.20;;;;;;;28.12;38.61;100861.53;5067349;28;20195;-63
2021/07/04 09:19:39;;;;;;;4.63;2.88;;;;;;;28.01;39.37;100847.53;5070468;28;20196;-63
2021/07/04 09:22:10;;;;;;;4.45;3.15;;;;;;;28.48;37.57;100879.75;5071811;28;20160;-63
2021/07/04 09:24:44;;;;;;;4.60;3.20;;;;;;;28.84;36.91;100895.00;5075439;28;20175;-63
2021/07/04 09:27:15;;;;;;;4.22;3.03;;;;;;;28.86;36.47;100891.59;5091777;28;20179;-63
2021/07/04 09:29:47;;;;;;;5.40;2.78;;;;;;;28.61;34.55;100890.34;5093046;28;20171;-63
2021/07/04 09:32:21;;;;;;;3.35;2.90;;;;;;;28.45;34.43;100886.53;5092751;28;20562;-63
2021/07/04 09:35:05;;;;;;;4.30;2.40;;;;;;;28.23;32.82;100878.41;5093224;28;20238;-63
2021/07/04 09:37:32;;;;;;;3.65;2.45;;;;;;;28.36;35.92;100889.03;5091584;28;20203;-63
2021/07/04 09:40:16;;;;;;;4.27;2.63;;;;;;;28.47;35.31;100874.56;5092825;28;20175;-63
2021/07/04 09:43:04;;;;;;;3.67;2.50;;;;;;;28.66;32.64;100880.91;5092721;28;20171;-63
2021/07/04 09:45:52;;;;;;;4.23;2.60;;;;;;;28.28;32.56;100876.75;5093226;28;20156;-63
2021/07/04 09:48:20;;;;;;;3.53;2.50;;;;;;;28.19;33.40;100871.50;5091689;28;20649;-63
2021/07/04 09:50:51;;;;;;;3.20;2.80;;;;;;;28.25;33.47;100869.31;5093373;28;20167;-62
2021/07/04 09:53:18;;;;;;;4.47;3.17;;;;;;;28.16;33.69;100844.91;5091516;28;20167;-63
2021/07/04 09:55:45;;;;;;;4.37;2.77;;;;;;;28.52;33.94;100859.44;5092253;28;20614;-63
2021/07/04 09:58:12;;;;;;;4.07;2.53;;;;;;;28.67;34.79;100863.22;5092094;28;20256;-63
2021/07/04 10:00:43;;;;;;;3.72;2.60;;;;;;;28.85;33.67;100852.97;5092637;28;20191;-63
2021/07/04 10:03:14;;;;;;;3.45;2.47;;;;;;;29.09;33.24;100856.31;5092179;28;20182;-63
2021/07/04 10:05:41;;;;;;;4.07;2.67;;;;;;;29.23;33.60;100866.34;5092613;28;20585;-63
2021/07/04 10:08:33;;;;;;;2.88;2.58;;;;;;;29.13;34.06;100861.69;5087740;28;20175;-63
2021/07/04 10:11:03;;;;;;;3.30;2.60;;;;;;;29.16;34.24;100832.78;5072279;28;20174;-63
2021/07/04 10:13:30;;;;;;;4.10;2.72;;;;;;;29.40;33.83;100863.06;5083452;28;20568;-63
2021/07/04 10:15:57;;;;;;;4.53;2.40;;;;;;;29.38;30.56;100854.31;5091756;28;20198;-62
2021/07/04 10:18:23;;;;;;;5.78;2.90;;;;;;;29.23;33.67;100842.75;5091442;28;20171;-63
2021/07/04 10:20:51;;;;;;;4.65;2.72;;;;;;;29.45;32.11;100850.75;5092196;28;20219;-63
2021/07/04 10:23:22;;;;;;;4.45;2.72;;;;;;;29.53;33.09;100848.72;5092006;28;20670;-63
2021/07/04 10:25:49;;;;;;;5.63;2.70;;;;;;;29.50;32.52;100816.34;5092465;28;20175;-62
2021/07/04 10:28:36;;;;;;;4.68;2.67;;;;;;;29.78;32.55;100852.75;5091575;28;20688;-63
2021/07/04 10:31:07;;;;;;;3.47;2.65;;;;;;;29.83;31.81;100832.59;5088027;28;20328;-63
2021/07/04 10:33:33;;;;;;;3.20;2.70;;;;;;;30.07;32.60;100857.91;5072394;28;20610;-63
2021/07/04 10:36:02;;;;;;;4.78;2.80;;;;;;;30.21;32.46;100850.78;5070623;28;20315;-63
2021/07/04 10:38:38;;;;;;;3.25;2.70;;;;;;;30.24;31.10;100840.31;5071074;28;20652;-63
2021/07/04 10:41:08;;;;;;;3.47;2.55;;;;;;;30.20;31.98;100820.63;5072061;28;20155;-63
2021/07/04 10:43:57;;;;;;;3.00;2.70;;;;;;;29.92;33.28;100837.81;5080225;28;20269;-63
2021/07/04 10:46:44;;;;;;;5.85;2.53;;;;;;;29.85;31.81;100826.31;5086657;28;20190;-64
2021/07/04 10:49:22;;;;;;;2.90;2.50;;;;;;;29.73;32.15;100825.88;5083226;28;20186;-63
2021/07/04 10:52:02;;;;;;;3.17;2.55;;;;;;;30.28;32.83;100812.09;5072156;28;20199;-64
2021/07/04 10:57:08;;;;;;;2.97;2.50;;;;;;;30.80;31.96;100817.25;5085648;28;20206;-64
2021/07/04 10:59:48;;;;;;;2.78;2.50;;;;;;;30.72;30.80;100825.84;5083990;28;20180;-63
2021/07/04 11:02:55;;;;;;;3.10;2.40;;;;;;;30.22;29.74;100808.66;5088926;28;20186;-63
2021/07/04 11:05:36;;;;;;;3.00;1.70;;;;;;;30.37;30.11;100823.00;5092221;28;20252;-63
2021/07/04 11:08:02;;;;;;;3.88;2.28;;;;;;;29.82;30.31;100818.88;5087312;28;20575;-63
2021/07/04 11:10:28;;;;;;;3.83;2.00;;;;;;;29.94;30.32;100820.09;5071695;28;20175;-63
2021/07/04 11:13:16;;;;;;;3.20;1.50;;;;;;;30.05;29.22;100811.97;5071512;28;20202;-63
2021/07/04 11:15:43;;;;;;;2.10;1.70;;;;;;;30.05;29.75;100811.22;5071183;28;20563;-63
2021/07/04 11:18:08;;;;;;;5.85;2.03;;;;;;;30.37;30.22;100809.50;5070441;28;20260;-63
2021/07/04 11:20:40;;;;;;;3.22;1.95;;;;;;;30.54;30.20;100804.00;5087898;28;20728;-64
2021/07/04 11:23:11;;;;;;;2.65;1.88;;;;;;;30.78;28.66;100802.78;5090017;28;20266;-64
2021/07/04 11:25:44;;;;;;;2.45;1.80;;;;;;;30.59;27.49;100808.81;5091517;28;20297;-63
2021/07/04 11:28:15;;;;;;;3.95;2.03;;;;;;;30.51;28.77;100804.38;5090692;28;20246;-63
2021/07/04 11:30:54;;;;;;;3.65;1.92;;;;;;;30.52;27.42;100803.81;5091437;28;20179;-63